sensor_id;sensor_type;location;lat;lon;timestamp;temperature;humidity
1351;DHT22;669;50.206;9.998;2022-11-20T00:01:05;-0.20;64.50
1351;DHT22;669;50.206;9.998;2022-11-20T00:03:34;-0.20;65.50
1351;DHT22;669;50.206;9.998;2022-11-20T00:06:03;-0.20;64.90
1351;DHT22;669;50.206;9.998;2022-11-20T00:08:32;-0.20;63.70
1351;DHT22;669;50.206;9.998;2022-11-20T00:11:03;-0.20;63.00
1351;DHT22;669;50.206;9.998;2022-11-20T00:13:31;-0.30;64.50
1351;DHT22;669;50.206;9.998;2022-11-20T00:15:59;-0.30;64.90
1351;DHT22;669;50.206;9.998;2022-11-20T00:18:29;-0.30;65.00
1351;DHT22;669;50.206;9.998;2022-11-20T00:21:01;-0.20;65.40
1351;DHT22;669;50.206;9.998;2022-11-20T00:23:29;-0.20;65.50
1351;DHT22;669;50.206;9.998;2022-11-20T00:26:02;-0.20;65.00
1351;DHT22;669;50.206;9.998;2022-11-20T00:28:31;-0.10;65.40
1351;DHT22;669;50.206;9.998;2022-11-20T00:31:03;-0.10;64.70
1351;DHT22;669;50.206;9.998;2022-11-20T00:33:34;0.10;64.50
1351;DHT22;669;50.206;9.998;2022-11-20T00:36:02;-0.10;64.00
1351;DHT22;669;50.206;9.998;2022-11-20T00:38:31;0.00;64.00
1351;DHT22;669;50.206;9.998;2022-11-20T00:40:59;0.00;64.10
1351;DHT22;669;50.206;9.998;2022-11-20T00:43:28;0.00;63.70
1351;DHT22;669;50.206;9.998;2022-11-20T00:45:57;0.00;63.20
1351;DHT22;669;50.206;9.998;2022-11-20T00:48:25;-0.10;62.50
1351;DHT22;669;50.206;9.998;2022-11-20T00:50:56;-0.10;63.70
1351;DHT22;669;50.206;9.998;2022-11-20T00:53:24;-0.20;63.10
1351;DHT22;669;50.206;9.998;2022-11-20T00:55:53;-0.20;64.70
1351;DHT22;669;50.206;9.998;2022-11-20T00:58:23;-0.20;63.20
1351;DHT22;669;50.206;9.998;2022-11-20T01:00:51;-0.30;64.40
1351;DHT22;669;50.206;9.998;2022-11-20T01:03:19;-0.40;63.60
1351;DHT22;669;50.206;9.998;2022-11-20T01:05:52;-0.40;65.20
1351;DHT22;669;50.206;9.998;2022-11-20T01:08:22;-0.40;65.60
1351;DHT22;669;50.206;9.998;2022-11-20T01:10:50;-0.30;65.70
1351;DHT22;669;50.206;9.998;2022-11-20T01:13:18;-0.30;65.10
1351;DHT22;669;50.206;9.998;2022-11-20T01:16:04;-0.30;65.40
1351;DHT22;669;50.206;9.998;2022-11-20T01:18:32;-0.20;65.20
1351;DHT22;669;50.206;9.998;2022-11-20T01:21:02;-0.20;64.90
1351;DHT22;669;50.206;9.998;2022-11-20T01:23:32;-0.30;64.10
1351;DHT22;669;50.206;9.998;2022-11-20T01:26:01;-0.30;64.50
1351;DHT22;669;50.206;9.998;2022-11-20T01:28:30;-0.30;63.80
1351;DHT22;669;50.206;9.998;2022-11-20T01:30:58;-0.30;64.00
1351;DHT22;669;50.206;9.998;2022-11-20T01:33:27;-0.30;64.90
1351;DHT22;669;50.206;9.998;2022-11-20T01:36:03;-0.30;64.50
1351;DHT22;669;50.206;9.998;2022-11-20T01:38:33;-0.30;63.50
1351;DHT22;669;50.206;9.998;2022-11-20T01:41:01;-0.40;63.00
1351;DHT22;669;50.206;9.998;2022-11-20T01:43:29;-0.40;64.50
1351;DHT22;669;50.206;9.998;2022-11-20T01:46:00;-0.40;64.30
1351;DHT22;669;50.206;9.998;2022-11-20T01:48:33;-0.40;64.90
1351;DHT22;669;50.206;9.998;2022-11-20T01:51:04;-0.50;64.30
1351;DHT22;669;50.206;9.998;2022-11-20T01:53:35;-0.50;64.50
1351;DHT22;669;50.206;9.998;2022-11-20T01:56:06;-0.50;63.60
1351;DHT22;669;50.206;9.998;2022-11-20T01:58:39;-0.50;65.50
1351;DHT22;669;50.206;9.998;2022-11-20T02:01:09;-0.40;65.60
1351;DHT22;669;50.206;9.998;2022-11-20T02:03:37;-0.40;66.40
1351;DHT22;669;50.206;9.998;2022-11-20T02:06:11;-0.40;66.20
1351;DHT22;669;50.206;9.998;2022-11-20T02:08:41;-0.30;66.70
1351;DHT22;669;50.206;9.998;2022-11-20T02:11:09;-0.30;65.70
1351;DHT22;669;50.206;9.998;2022-11-20T02:13:39;-0.30;66.30
1351;DHT22;669;50.206;9.998;2022-11-20T02:16:12;-0.30;65.10
1351;DHT22;669;50.206;9.998;2022-11-20T02:18:42;-0.30;65.70
1351;DHT22;669;50.206;9.998;2022-11-20T02:21:17;-0.30;64.40
1351;DHT22;669;50.206;9.998;2022-11-20T02:24:06;-0.30;65.70
1351;DHT22;669;50.206;9.998;2022-11-20T02:26:45;-0.30;64.70
1351;DHT22;669;50.206;9.998;2022-11-20T02:29:16;-0.30;65.70
1351;DHT22;669;50.206;9.998;2022-11-20T02:31:46;-0.40;66.40
1351;DHT22;669;50.206;9.998;2022-11-20T02:34:14;-0.30;66.70
1351;DHT22;669;50.206;9.998;2022-11-20T02:36:42;-0.30;66.60
1351;DHT22;669;50.206;9.998;2022-11-20T02:39:13;-0.30;64.50
1351;DHT22;669;50.206;9.998;2022-11-20T02:41:43;-0.40;64.20
1351;DHT22;669;50.206;9.998;2022-11-20T02:44:12;-0.50;64.80
1351;DHT22;669;50.206;9.998;2022-11-20T02:46:40;-0.50;65.50
1351;DHT22;669;50.206;9.998;2022-11-20T02:49:08;-0.60;65.40
1351;DHT22;669;50.206;9.998;2022-11-20T02:51:36;-0.50;66.70
1351;DHT22;669;50.206;9.998;2022-11-20T02:54:04;-0.50;66.70
1351;DHT22;669;50.206;9.998;2022-11-20T02:56:33;-0.40;65.60
1351;DHT22;669;50.206;9.998;2022-11-20T02:59:01;-0.40;64.80
1351;DHT22;669;50.206;9.998;2022-11-20T03:01:29;-0.40;62.70
1351;DHT22;669;50.206;9.998;2022-11-20T03:03:57;-0.50;65.00
1351;DHT22;669;50.206;9.998;2022-11-20T03:06:25;-0.50;63.20
1351;DHT22;669;50.206;9.998;2022-11-20T03:08:53;-0.60;65.10
1351;DHT22;669;50.206;9.998;2022-11-20T03:11:21;-0.60;64.50
1351;DHT22;669;50.206;9.998;2022-11-20T03:13:50;-0.60;63.80
1351;DHT22;669;50.206;9.998;2022-11-20T03:16:20;-0.60;65.00
1351;DHT22;669;50.206;9.998;2022-11-20T03:18:49;-0.60;63.70
1351;DHT22;669;50.206;9.998;2022-11-20T03:21:17;-0.60;63.10
1351;DHT22;669;50.206;9.998;2022-11-20T03:23:45;-0.60;64.60
1351;DHT22;669;50.206;9.998;2022-11-20T03:26:14;-0.50;64.20
1351;DHT22;669;50.206;9.998;2022-11-20T03:28:47;-0.50;64.20
1351;DHT22;669;50.206;9.998;2022-11-20T03:31:18;-0.40;63.80
1351;DHT22;669;50.206;9.998;2022-11-20T03:33:46;-0.40;64.60
1351;DHT22;669;50.206;9.998;2022-11-20T03:36:15;-0.30;63.80
1351;DHT22;669;50.206;9.998;2022-11-20T03:38:44;-0.30;63.60
1351;DHT22;669;50.206;9.998;2022-11-20T03:41:14;-0.30;63.90
1351;DHT22;669;50.206;9.998;2022-11-20T03:43:46;-0.30;64.10
1351;DHT22;669;50.206;9.998;2022-11-20T03:46:16;-0.30;62.60
1351;DHT22;669;50.206;9.998;2022-11-20T03:48:44;-0.30;63.90
1351;DHT22;669;50.206;9.998;2022-11-20T03:51:19;-0.40;63.30
1351;DHT22;669;50.206;9.998;2022-11-20T03:53:48;-0.40;64.30
1351;DHT22;669;50.206;9.998;2022-11-20T03:56:18;-0.40;63.50
1351;DHT22;669;50.206;9.998;2022-11-20T03:58:46;-0.40;64.50
1351;DHT22;669;50.206;9.998;2022-11-20T04:01:17;-0.40;65.00
1351;DHT22;669;50.206;9.998;2022-11-20T04:03:46;-0.40;63.80
1351;DHT22;669;50.206;9.998;2022-11-20T04:06:16;-0.40;63.30
1351;DHT22;669;50.206;9.998;2022-11-20T04:08:44;-0.40;64.50
1351;DHT22;669;50.206;9.998;2022-11-20T04:11:20;-0.40;64.60
1351;DHT22;669;50.206;9.998;2022-11-20T04:13:50;-0.30;64.70
1351;DHT22;669;50.206;9.998;2022-11-20T04:16:20;-0.30;64.00
1351;DHT22;669;50.206;9.998;2022-11-20T04:18:51;-0.30;64.10
1351;DHT22;669;50.206;9.998;2022-11-20T04:21:20;-0.30;63.80
1351;DHT22;669;50.206;9.998;2022-11-20T04:23:48;-0.30;63.30
1351;DHT22;669;50.206;9.998;2022-11-20T04:26:16;-0.30;63.00
1351;DHT22;669;50.206;9.998;2022-11-20T04:28:44;-0.40;63.70
1351;DHT22;669;50.206;9.998;2022-11-20T04:31:14;-0.30;63.50
1351;DHT22;669;50.206;9.998;2022-11-20T04:33:44;-0.30;64.70
1351;DHT22;669;50.206;9.998;2022-11-20T04:36:14;-0.20;64.90
1351;DHT22;669;50.206;9.998;2022-11-20T04:38:43;-0.30;64.10
1351;DHT22;669;50.206;9.998;2022-11-20T04:41:15;-0.20;64.30
1351;DHT22;669;50.206;9.998;2022-11-20T04:43:46;-0.20;63.90
1351;DHT22;669;50.206;9.998;2022-11-20T04:46:16;-0.20;63.70
1351;DHT22;669;50.206;9.998;2022-11-20T04:48:46;-0.20;63.80
1351;DHT22;669;50.206;9.998;2022-11-20T04:51:15;-0.20;63.50
1351;DHT22;669;50.206;9.998;2022-11-20T04:53:43;-0.10;64.00
1351;DHT22;669;50.206;9.998;2022-11-20T04:56:12;-0.10;63.70
1351;DHT22;669;50.206;9.998;2022-11-20T04:58:40;-0.10;63.70
1351;DHT22;669;50.206;9.998;2022-11-20T05:01:10;-0.10;62.60
1351;DHT22;669;50.206;9.998;2022-11-20T05:03:39;-0.20;63.40
1351;DHT22;669;50.206;9.998;2022-11-20T05:06:11;-0.20;62.20
1351;DHT22;669;50.206;9.998;2022-11-20T05:08:40;-0.30;62.10
1351;DHT22;669;50.206;9.998;2022-11-20T05:11:10;-0.30;63.40
1351;DHT22;669;50.206;9.998;2022-11-20T05:13:39;-0.30;64.10
1351;DHT22;669;50.206;9.998;2022-11-20T05:16:08;-0.30;62.90
1351;DHT22;669;50.206;9.998;2022-11-20T05:18:37;-0.30;64.40
1351;DHT22;669;50.206;9.998;2022-11-20T05:21:06;-0.30;63.80
1351;DHT22;669;50.206;9.998;2022-11-20T05:23:36;-0.40;63.20
1351;DHT22;669;50.206;9.998;2022-11-20T05:26:05;-0.40;63.20
1351;DHT22;669;50.206;9.998;2022-11-20T05:28:34;-0.40;65.00
1351;DHT22;669;50.206;9.998;2022-11-20T05:31:06;-0.30;64.30
1351;DHT22;669;50.206;9.998;2022-11-20T05:33:35;-0.30;63.80
1351;DHT22;669;50.206;9.998;2022-11-20T05:36:04;-0.30;64.10
1351;DHT22;669;50.206;9.998;2022-11-20T05:38:32;-0.30;63.80
1351;DHT22;669;50.206;9.998;2022-11-20T05:41:05;-0.30;65.30
1351;DHT22;669;50.206;9.998;2022-11-20T05:43:33;-0.30;65.40
1351;DHT22;669;50.206;9.998;2022-11-20T05:46:02;-0.20;65.30
1351;DHT22;669;50.206;9.998;2022-11-20T05:48:30;-0.20;65.00
1351;DHT22;669;50.206;9.998;2022-11-20T05:50:58;-0.20;65.30
1351;DHT22;669;50.206;9.998;2022-11-20T05:53:26;-0.10;65.20
1351;DHT22;669;50.206;9.998;2022-11-20T05:55:58;-0.10;64.50
1351;DHT22;669;50.206;9.998;2022-11-20T05:58:29;-0.10;65.10
1351;DHT22;669;50.206;9.998;2022-11-20T06:01:04;-0.10;64.80
1351;DHT22;669;50.206;9.998;2022-11-20T06:03:32;-0.10;64.70
1351;DHT22;669;50.206;9.998;2022-11-20T06:06:00;-0.10;64.70
1351;DHT22;669;50.206;9.998;2022-11-20T06:08:28;-0.10;64.20
1351;DHT22;669;50.206;9.998;2022-11-20T06:10:57;-0.10;63.90
1351;DHT22;669;50.206;9.998;2022-11-20T06:13:25;-0.10;64.40
1351;DHT22;669;50.206;9.998;2022-11-20T06:15:54;-0.10;64.50
1351;DHT22;669;50.206;9.998;2022-11-20T06:18:22;-0.10;63.90
1351;DHT22;669;50.206;9.998;2022-11-20T06:20:59;-0.10;63.10
1351;DHT22;669;50.206;9.998;2022-11-20T06:23:28;-0.20;64.30
1351;DHT22;669;50.206;9.998;2022-11-20T06:25:56;-0.20;64.60
1351;DHT22;669;50.206;9.998;2022-11-20T06:28:24;-0.20;63.50
1351;DHT22;669;50.206;9.998;2022-11-20T06:30:54;-0.20;65.10
1351;DHT22;669;50.206;9.998;2022-11-20T06:33:22;-0.20;65.80
1351;DHT22;669;50.206;9.998;2022-11-20T06:35:50;-0.10;65.80
1351;DHT22;669;50.206;9.998;2022-11-20T06:38:25;-0.10;65.80
1351;DHT22;669;50.206;9.998;2022-11-20T06:40:53;-0.10;65.80
1351;DHT22;669;50.206;9.998;2022-11-20T06:43:22;-0.10;65.80
1351;DHT22;669;50.206;9.998;2022-11-20T06:45:53;0.00;65.90
1351;DHT22;669;50.206;9.998;2022-11-20T06:48:22;0.00;65.90
1351;DHT22;669;50.206;9.998;2022-11-20T06:50:50;0.00;64.90
1351;DHT22;669;50.206;9.998;2022-11-20T06:53:18;0.00;64.70
1351;DHT22;669;50.206;9.998;2022-11-20T06:55:47;-0.10;64.20
1351;DHT22;669;50.206;9.998;2022-11-20T06:58:16;-0.10;65.70
1351;DHT22;669;50.206;9.998;2022-11-20T07:00:44;-0.10;65.10
1351;DHT22;669;50.206;9.998;2022-11-20T07:03:13;0.00;64.60
1351;DHT22;669;50.206;9.998;2022-11-20T07:05:41;0.00;64.60
1351;DHT22;669;50.206;9.998;2022-11-20T07:08:10;0.00;64.60
1351;DHT22;669;50.206;9.998;2022-11-20T07:10:38;0.00;64.30
1351;DHT22;669;50.206;9.998;2022-11-20T07:13:06;0.00;64.70
1351;DHT22;669;50.206;9.998;2022-11-20T07:15:34;-0.10;64.50
1351;DHT22;669;50.206;9.998;2022-11-20T07:18:02;-0.10;64.30
1351;DHT22;669;50.206;9.998;2022-11-20T07:20:32;-0.10;67.30
1351;DHT22;669;50.206;9.998;2022-11-20T07:23:00;-0.10;66.00
1351;DHT22;669;50.206;9.998;2022-11-20T07:25:28;0.00;66.50
1351;DHT22;669;50.206;9.998;2022-11-20T07:27:57;0.00;66.20
1351;DHT22;669;50.206;9.998;2022-11-20T07:30:25;0.00;65.90
1351;DHT22;669;50.206;9.998;2022-11-20T07:32:54;0.10;66.10
1351;DHT22;669;50.206;9.998;2022-11-20T07:35:23;0.10;66.10
1351;DHT22;669;50.206;9.998;2022-11-20T07:37:52;0.10;66.10
1351;DHT22;669;50.206;9.998;2022-11-20T07:40:20;0.10;66.10
1351;DHT22;669;50.206;9.998;2022-11-20T07:42:48;0.20;66.60
1351;DHT22;669;50.206;9.998;2022-11-20T07:45:17;0.20;66.50
1351;DHT22;669;50.206;9.998;2022-11-20T07:47:45;0.30;66.20
1351;DHT22;669;50.206;9.998;2022-11-20T07:50:13;0.30;66.20
1351;DHT22;669;50.206;9.998;2022-11-20T07:52:42;0.40;66.30
1351;DHT22;669;50.206;9.998;2022-11-20T07:55:12;0.40;66.30
1351;DHT22;669;50.206;9.998;2022-11-20T07:57:40;0.40;65.70
1351;DHT22;669;50.206;9.998;2022-11-20T08:00:10;0.40;64.80
1351;DHT22;669;50.206;9.998;2022-11-20T08:02:39;0.40;65.00
1351;DHT22;669;50.206;9.998;2022-11-20T08:05:08;0.30;65.40
1351;DHT22;669;50.206;9.998;2022-11-20T08:07:37;0.40;66.70
1351;DHT22;669;50.206;9.998;2022-11-20T08:10:07;0.20;64.40
1351;DHT22;669;50.206;9.998;2022-11-20T08:12:43;0.30;65.10
1351;DHT22;669;50.206;9.998;2022-11-20T08:15:29;0.30;66.20
1351;DHT22;669;50.206;9.998;2022-11-20T08:18:00;0.30;65.40
1351;DHT22;669;50.206;9.998;2022-11-20T08:20:48;0.30;65.60
1351;DHT22;669;50.206;9.998;2022-11-20T08:23:16;0.30;66.20
1351;DHT22;669;50.206;9.998;2022-11-20T08:25:48;0.40;65.80
1351;DHT22;669;50.206;9.998;2022-11-20T08:28:18;0.40;65.90
1351;DHT22;669;50.206;9.998;2022-11-20T08:30:48;0.40;66.30
1351;DHT22;669;50.206;9.998;2022-11-20T08:33:16;0.40;66.80
1351;DHT22;669;50.206;9.998;2022-11-20T08:35:45;0.50;66.40
1351;DHT22;669;50.206;9.998;2022-11-20T08:38:13;0.50;65.60
1351;DHT22;669;50.206;9.998;2022-11-20T08:40:41;0.40;65.30
1351;DHT22;669;50.206;9.998;2022-11-20T08:43:30;0.40;65.70
1351;DHT22;669;50.206;9.998;2022-11-20T08:45:58;0.40;65.90
1351;DHT22;669;50.206;9.998;2022-11-20T08:48:26;0.40;66.30
1351;DHT22;669;50.206;9.998;2022-11-20T08:50:57;0.40;67.60
1351;DHT22;669;50.206;9.998;2022-11-20T08:53:25;0.40;67.40
1351;DHT22;669;50.206;9.998;2022-11-20T08:55:54;0.40;68.10
1351;DHT22;669;50.206;9.998;2022-11-20T08:58:22;0.40;67.80
1351;DHT22;669;50.206;9.998;2022-11-20T09:00:51;0.50;68.00
1351;DHT22;669;50.206;9.998;2022-11-20T09:03:20;0.50;69.40
1351;DHT22;669;50.206;9.998;2022-11-20T09:05:48;0.50;67.90
1351;DHT22;669;50.206;9.998;2022-11-20T09:08:15;0.50;69.00
1351;DHT22;669;50.206;9.998;2022-11-20T09:10:43;0.50;69.10
1351;DHT22;669;50.206;9.998;2022-11-20T09:13:11;0.50;69.40
1351;DHT22;669;50.206;9.998;2022-11-20T09:15:40;0.60;69.30
1351;DHT22;669;50.206;9.998;2022-11-20T09:18:09;0.60;69.30
1351;DHT22;669;50.206;9.998;2022-11-20T09:20:37;0.70;69.40
1351;DHT22;669;50.206;9.998;2022-11-20T09:23:05;0.70;68.90
1351;DHT22;669;50.206;9.998;2022-11-20T09:25:33;0.70;69.70
1351;DHT22;669;50.206;9.998;2022-11-20T09:28:01;0.70;69.10
1351;DHT22;669;50.206;9.998;2022-11-20T09:30:29;0.70;70.20
1351;DHT22;669;50.206;9.998;2022-11-20T09:32:57;0.70;69.60
1351;DHT22;669;50.206;9.998;2022-11-20T09:35:26;0.80;70.30
1351;DHT22;669;50.206;9.998;2022-11-20T09:37:54;0.90;71.20
1351;DHT22;669;50.206;9.998;2022-11-20T09:40:24;0.90;70.00
1351;DHT22;669;50.206;9.998;2022-11-20T09:42:56;0.90;71.00
1351;DHT22;669;50.206;9.998;2022-11-20T09:45:37;0.90;69.50
1351;DHT22;669;50.206;9.998;2022-11-20T09:48:27;0.90;71.20
1351;DHT22;669;50.206;9.998;2022-11-20T09:51:02;0.90;70.30
1351;DHT22;669;50.206;9.998;2022-11-20T09:53:35;0.90;71.00
1351;DHT22;669;50.206;9.998;2022-11-20T09:56:08;1.00;71.80
1351;DHT22;669;50.206;9.998;2022-11-20T09:58:40;1.00;71.70
1351;DHT22;669;50.206;9.998;2022-11-20T10:01:12;1.10;71.40
1351;DHT22;669;50.206;9.998;2022-11-20T10:03:51;1.10;71.00
1351;DHT22;669;50.206;9.998;2022-11-20T10:06:29;1.20;71.40
1351;DHT22;669;50.206;9.998;2022-11-20T10:09:06;1.30;71.30
1351;DHT22;669;50.206;9.998;2022-11-20T10:11:44;1.30;70.70
1351;DHT22;669;50.206;9.998;2022-11-20T10:14:23;1.30;70.60
1351;DHT22;669;50.206;9.998;2022-11-20T10:17:01;1.30;70.90
1351;DHT22;669;50.206;9.998;2022-11-20T10:19:47;1.40;70.70
1351;DHT22;669;50.206;9.998;2022-11-20T10:22:30;1.40;69.70
1351;DHT22;669;50.206;9.998;2022-11-20T10:25:05;1.40;70.20
1351;DHT22;669;50.206;9.998;2022-11-20T10:27:55;1.40;70.10
1351;DHT22;669;50.206;9.998;2022-11-20T10:30:27;1.40;70.20
1351;DHT22;669;50.206;9.998;2022-11-20T10:33:03;1.40;70.60
1351;DHT22;669;50.206;9.998;2022-11-20T10:35:35;1.50;71.10
1351;DHT22;669;50.206;9.998;2022-11-20T10:38:12;1.60;71.50
1351;DHT22;669;50.206;9.998;2022-11-20T10:40:44;1.70;71.40
1351;DHT22;669;50.206;9.998;2022-11-20T10:43:16;1.80;70.50
1351;DHT22;669;50.206;9.998;2022-11-20T10:45:52;1.80;70.20
1351;DHT22;669;50.206;9.998;2022-11-20T10:48:23;1.70;70.00
1351;DHT22;669;50.206;9.998;2022-11-20T10:51:10;1.80;70.20
1351;DHT22;669;50.206;9.998;2022-11-20T10:53:56;1.70;69.50
1351;DHT22;669;50.206;9.998;2022-11-20T10:56:30;1.80;70.70
1351;DHT22;669;50.206;9.998;2022-11-20T10:59:23;1.80;70.20
1351;DHT22;669;50.206;9.998;2022-11-20T11:01:55;1.90;70.60
1351;DHT22;669;50.206;9.998;2022-11-20T11:04:33;2.00;70.80
1351;DHT22;669;50.206;9.998;2022-11-20T11:07:08;2.00;70.70
1351;DHT22;669;50.206;9.998;2022-11-20T11:09:43;2.10;70.70
1351;DHT22;669;50.206;9.998;2022-11-20T11:12:11;2.10;69.50
1351;DHT22;669;50.206;9.998;2022-11-20T11:14:44;2.20;69.30
1351;DHT22;669;50.206;9.998;2022-11-20T11:17:24;2.30;69.50
1351;DHT22;669;50.206;9.998;2022-11-20T11:20:05;2.30;68.90
1351;DHT22;669;50.206;9.998;2022-11-20T11:22:42;2.30;69.40
1351;DHT22;669;50.206;9.998;2022-11-20T11:25:23;2.30;69.30
1351;DHT22;669;50.206;9.998;2022-11-20T11:27:53;2.40;68.90
1351;DHT22;669;50.206;9.998;2022-11-20T11:30:24;2.40;69.20
1351;DHT22;669;50.206;9.998;2022-11-20T11:33:03;2.40;68.10
1351;DHT22;669;50.206;9.998;2022-11-20T11:35:33;2.40;68.10
1351;DHT22;669;50.206;9.998;2022-11-20T11:38:06;2.40;68.10
1351;DHT22;669;50.206;9.998;2022-11-20T11:40:38;2.40;69.10
1351;DHT22;669;50.206;9.998;2022-11-20T11:43:17;2.40;68.90
1351;DHT22;669;50.206;9.998;2022-11-20T11:46:06;2.40;68.40
1351;DHT22;669;50.206;9.998;2022-11-20T11:48:39;2.50;68.80
1351;DHT22;669;50.206;9.998;2022-11-20T11:51:20;2.50;69.90
1351;DHT22;669;50.206;9.998;2022-11-20T11:53:48;2.50;68.50
1351;DHT22;669;50.206;9.998;2022-11-20T11:56:18;2.50;68.30
1351;DHT22;669;50.206;9.998;2022-11-20T11:58:47;2.50;69.70
1351;DHT22;669;50.206;9.998;2022-11-20T12:01:24;2.50;68.90
1351;DHT22;669;50.206;9.998;2022-11-20T12:04:02;2.60;69.20
1351;DHT22;669;50.206;9.998;2022-11-20T12:06:33;2.70;70.20
1351;DHT22;669;50.206;9.998;2022-11-20T12:09:04;2.80;70.90
1351;DHT22;669;50.206;9.998;2022-11-20T12:11:38;2.90;69.50
1351;DHT22;669;50.206;9.998;2022-11-20T12:14:13;2.90;69.70
1351;DHT22;669;50.206;9.998;2022-11-20T12:16:42;3.00;69.40
1351;DHT22;669;50.206;9.998;2022-11-20T12:19:11;3.10;68.90
1351;DHT22;669;50.206;9.998;2022-11-20T12:21:50;3.10;68.70
1351;DHT22;669;50.206;9.998;2022-11-20T12:24:43;3.10;68.80
1351;DHT22;669;50.206;9.998;2022-11-20T12:27:34;3.20;68.90
1351;DHT22;669;50.206;9.998;2022-11-20T12:30:09;3.20;68.80
1351;DHT22;669;50.206;9.998;2022-11-20T12:35:44;3.20;69.30
1351;DHT22;669;50.206;9.998;2022-11-20T12:38:40;3.20;68.90
1351;DHT22;669;50.206;9.998;2022-11-20T12:41:18;3.20;68.50
1351;DHT22;669;50.206;9.998;2022-11-20T12:44:19;3.20;68.40
1351;DHT22;669;50.206;9.998;2022-11-20T12:47:19;3.20;68.90
1351;DHT22;669;50.206;9.998;2022-11-20T12:49:55;3.20;68.80
1351;DHT22;669;50.206;9.998;2022-11-20T12:52:37;3.20;68.40
1351;DHT22;669;50.206;9.998;2022-11-20T12:55:25;3.10;68.50
1351;DHT22;669;50.206;9.998;2022-11-20T12:58:00;3.10;67.80
1351;DHT22;669;50.206;9.998;2022-11-20T13:00:30;3.00;68.00
1351;DHT22;669;50.206;9.998;2022-11-20T13:03:31;3.00;68.40
1351;DHT22;669;50.206;9.998;2022-11-20T13:06:10;3.00;69.40
1351;DHT22;669;50.206;9.998;2022-11-20T13:08:40;3.10;70.20
1351;DHT22;669;50.206;9.998;2022-11-20T13:11:14;3.10;70.40
1351;DHT22;669;50.206;9.998;2022-11-20T13:14:08;3.10;70.30
1351;DHT22;669;50.206;9.998;2022-11-20T13:16:45;3.10;69.50
1351;DHT22;669;50.206;9.998;2022-11-20T13:19:17;3.10;70.60
1351;DHT22;669;50.206;9.998;2022-11-20T13:21:47;3.10;70.40
1351;DHT22;669;50.206;9.998;2022-11-20T13:24:24;3.10;70.30
1351;DHT22;669;50.206;9.998;2022-11-20T13:30:00;3.20;70.00
1351;DHT22;669;50.206;9.998;2022-11-20T13:32:29;3.20;70.00
1351;DHT22;669;50.206;9.998;2022-11-20T13:35:00;3.30;69.90
1351;DHT22;669;50.206;9.998;2022-11-20T13:37:30;3.40;70.10
1351;DHT22;669;50.206;9.998;2022-11-20T13:40:11;3.40;69.50
1351;DHT22;669;50.206;9.998;2022-11-20T13:42:44;3.40;69.10
1351;DHT22;669;50.206;9.998;2022-11-20T13:45:22;3.40;69.10
1351;DHT22;669;50.206;9.998;2022-11-20T13:47:53;3.40;69.10
1351;DHT22;669;50.206;9.998;2022-11-20T13:50:37;3.40;68.70
1351;DHT22;669;50.206;9.998;2022-11-20T13:53:20;3.30;68.80
1351;DHT22;669;50.206;9.998;2022-11-20T13:55:54;3.30;68.80
1351;DHT22;669;50.206;9.998;2022-11-20T13:58:33;3.20;68.90
1351;DHT22;669;50.206;9.998;2022-11-20T14:01:10;3.10;68.10
1351;DHT22;669;50.206;9.998;2022-11-20T14:03:40;3.00;69.10
1351;DHT22;669;50.206;9.998;2022-11-20T14:06:30;3.00;69.50
1351;DHT22;669;50.206;9.998;2022-11-20T14:08:59;2.90;69.50
1351;DHT22;669;50.206;9.998;2022-11-20T14:11:28;2.80;69.70
1351;DHT22;669;50.206;9.998;2022-11-20T14:13:59;2.80;70.00
1351;DHT22;669;50.206;9.998;2022-11-20T14:16:30;2.80;69.80
1351;DHT22;669;50.206;9.998;2022-11-20T14:19:24;2.70;70.50
1351;DHT22;669;50.206;9.998;2022-11-20T14:21:54;2.70;70.70
1351;DHT22;669;50.206;9.998;2022-11-20T14:24:24;2.60;71.40
1351;DHT22;669;50.206;9.998;2022-11-20T14:26:53;2.60;71.10
1351;DHT22;669;50.206;9.998;2022-11-20T14:29:26;2.60;71.90
1351;DHT22;669;50.206;9.998;2022-11-20T14:31:56;2.50;72.40
1351;DHT22;669;50.206;9.998;2022-11-20T14:34:28;2.50;72.90
1351;DHT22;669;50.206;9.998;2022-11-20T14:36:58;2.50;72.90
1351;DHT22;669;50.206;9.998;2022-11-20T14:39:30;2.50;73.70
1351;DHT22;669;50.206;9.998;2022-11-20T14:41:59;2.50;74.10
1351;DHT22;669;50.206;9.998;2022-11-20T14:44:31;2.50;73.80
1351;DHT22;669;50.206;9.998;2022-11-20T14:47:00;2.50;73.10
1351;DHT22;669;50.206;9.998;2022-11-20T14:49:31;2.50;72.90
1351;DHT22;669;50.206;9.998;2022-11-20T14:52:01;2.50;73.30
1351;DHT22;669;50.206;9.998;2022-11-20T14:54:29;2.50;74.00
1351;DHT22;669;50.206;9.998;2022-11-20T14:56:59;2.40;74.40
1351;DHT22;669;50.206;9.998;2022-11-20T14:59:30;2.40;74.90
1351;DHT22;669;50.206;9.998;2022-11-20T15:02:00;2.40;75.10
1351;DHT22;669;50.206;9.998;2022-11-20T15:04:30;2.40;75.30
1351;DHT22;669;50.206;9.998;2022-11-20T15:06:59;2.40;75.00
1351;DHT22;669;50.206;9.998;2022-11-20T15:09:27;2.40;74.70
1351;DHT22;669;50.206;9.998;2022-11-20T15:11:56;2.40;75.00
1351;DHT22;669;50.206;9.998;2022-11-20T15:14:26;2.40;75.70
1351;DHT22;669;50.206;9.998;2022-11-20T15:16:55;2.40;76.00
1351;DHT22;669;50.206;9.998;2022-11-20T15:19:24;2.40;75.60
1351;DHT22;669;50.206;9.998;2022-11-20T15:21:54;2.40;75.90
1351;DHT22;669;50.206;9.998;2022-11-20T15:24:22;2.40;76.30
1351;DHT22;669;50.206;9.998;2022-11-20T15:26:51;2.40;76.10
1351;DHT22;669;50.206;9.998;2022-11-20T15:29:20;2.40;77.30
1351;DHT22;669;50.206;9.998;2022-11-20T15:31:49;2.40;76.60
1351;DHT22;669;50.206;9.998;2022-11-20T15:34:17;2.30;77.50
1351;DHT22;669;50.206;9.998;2022-11-20T15:36:46;2.30;77.00
1351;DHT22;669;50.206;9.998;2022-11-20T15:39:15;2.30;78.20
1351;DHT22;669;50.206;9.998;2022-11-20T15:41:44;2.20;77.40
1351;DHT22;669;50.206;9.998;2022-11-20T15:44:12;2.20;78.10
1351;DHT22;669;50.206;9.998;2022-11-20T15:46:42;2.20;78.90
1351;DHT22;669;50.206;9.998;2022-11-20T15:49:13;2.20;78.50
1351;DHT22;669;50.206;9.998;2022-11-20T15:51:42;2.30;79.80
1351;DHT22;669;50.206;9.998;2022-11-20T15:54:15;2.20;79.70
1351;DHT22;669;50.206;9.998;2022-11-20T15:56:44;2.20;79.80
1351;DHT22;669;50.206;9.998;2022-11-20T15:59:12;2.20;80.20
1351;DHT22;669;50.206;9.998;2022-11-20T16:01:41;2.20;80.40
1351;DHT22;669;50.206;9.998;2022-11-20T16:04:10;2.20;81.10
1351;DHT22;669;50.206;9.998;2022-11-20T16:06:38;2.30;81.20
1351;DHT22;669;50.206;9.998;2022-11-20T16:09:07;2.30;80.20
1351;DHT22;669;50.206;9.998;2022-11-20T16:11:36;2.30;80.50
1351;DHT22;669;50.206;9.998;2022-11-20T16:14:05;2.30;81.10
1351;DHT22;669;50.206;9.998;2022-11-20T16:16:51;2.30;81.00
1351;DHT22;669;50.206;9.998;2022-11-20T16:19:20;2.30;82.10
1351;DHT22;669;50.206;9.998;2022-11-20T16:21:48;2.40;82.20
1351;DHT22;669;50.206;9.998;2022-11-20T16:24:16;2.40;81.40
1351;DHT22;669;50.206;9.998;2022-11-20T16:26:45;2.40;81.50
1351;DHT22;669;50.206;9.998;2022-11-20T16:29:13;2.40;82.20
1351;DHT22;669;50.206;9.998;2022-11-20T16:31:41;2.40;79.90
1351;DHT22;669;50.206;9.998;2022-11-20T16:34:09;2.30;80.50
1351;DHT22;669;50.206;9.998;2022-11-20T16:36:39;2.30;81.90
1351;DHT22;669;50.206;9.998;2022-11-20T16:39:07;2.30;81.50
1351;DHT22;669;50.206;9.998;2022-11-20T16:41:35;2.40;81.70
1351;DHT22;669;50.206;9.998;2022-11-20T16:44:08;2.40;81.70
1351;DHT22;669;50.206;9.998;2022-11-20T16:46:37;2.40;81.90
1351;DHT22;669;50.206;9.998;2022-11-20T16:49:10;2.40;81.80
1351;DHT22;669;50.206;9.998;2022-11-20T16:51:39;2.40;81.90
1351;DHT22;669;50.206;9.998;2022-11-20T16:54:08;2.40;82.00
1351;DHT22;669;50.206;9.998;2022-11-20T16:56:38;2.40;81.50
1351;DHT22;669;50.206;9.998;2022-11-20T16:59:08;2.40;82.10
1351;DHT22;669;50.206;9.998;2022-11-20T17:01:36;2.40;82.20